Time;durP1;ratioP1;P1;durP2;ratioP2;P2;SDS_P1;SDS_P2;PMS_P1;PMS_P2;Temp;Humidity;BMP_temperature;BMP_pressure;BME280_temperature;BME280_humidity;BME280_pressure;Samples;Min_cycle;Max_cycle;Signal;HPM_P1;HPM_P2
2021/06/20 00:00:18;;;;;;;11.05;7.20;;;26.60;68.20;;;;;;5132904;28;20543;-48
2021/06/20 00:02:49;;;;;;;9.15;6.82;;;26.60;68.10;;;;;;5103500;28;20052;-49
2021/06/20 00:05:20;;;;;;;7.95;7.00;;;26.60;68.00;;;;;;5075233;28;20044;-48
2021/06/20 00:07:49;;;;;;;8.43;6.80;;;26.60;68.00;;;;;;5088729;28;20040;-48
2021/06/20 00:10:20;;;;;;;9.05;6.78;;;26.60;68.10;;;;;;5095034;28;20047;-51
2021/06/20 00:12:48;;;;;;;13.90;6.07;;;26.60;68.10;;;;;;5102137;28;20048;-49
2021/06/20 00:15:19;;;;;;;10.02;6.05;;;26.60;68.20;;;;;;5092092;28;20568;-48
2021/06/20 00:17:47;;;;;;;8.63;5.93;;;26.50;68.20;;;;;;5119820;28;20127;-48
2021/06/20 00:20:18;;;;;;;8.77;6.03;;;26.50;68.30;;;;;;5091410;28;20134;-48
2021/06/20 00:22:46;;;;;;;9.43;6.78;;;26.50;68.30;;;;;;5105475;28;20150;-48
2021/06/20 00:25:15;;;;;;;8.48;5.07;;;26.50;68.50;;;;;;5122584;27;20135;-48
2021/06/20 00:27:43;;;;;;;5.72;4.28;;;26.50;68.60;;;;;;5123622;27;20043;-48
2021/06/20 00:30:14;;;;;;;9.43;5.57;;;26.50;68.70;;;;;;5117684;27;20134;-48
2021/06/20 00:32:43;;;;;;;8.20;4.70;;;26.50;68.70;;;;;;5106622;27;20462;-48
2021/06/20 00:35:12;;;;;;;6.97;4.38;;;26.50;68.80;;;;;;5118769;27;20043;-48
2021/06/20 00:37:39;;;;;;;6.78;4.55;;;26.50;68.80;;;;;;5088905;27;20062;-50
2021/06/20 00:40:08;;;;;;;6.43;4.40;;;26.50;68.90;;;;;;5118979;27;20471;-48
2021/06/20 00:42:36;;;;;;;8.27;4.75;;;26.40;69.10;;;;;;5123039;27;20047;-48
2021/06/20 00:45:06;;;;;;;6.68;4.70;;;26.40;68.90;;;;;;5135715;27;20405;-47
2021/06/20 00:47:33;;;;;;;6.43;4.68;;;26.40;68.90;;;;;;5123799;27;20055;-48
2021/06/20 00:50:03;;;;;;;6.97;4.95;;;26.40;68.80;;;;;;5118682;27;20039;-48
2021/06/20 00:52:31;;;;;;;7.85;5.03;;;26.40;68.80;;;;;;5122969;27;20071;-48
2021/06/20 00:54:58;;;;;;;7.38;4.97;;;26.30;68.80;;;;;;5135649;27;20112;-48
2021/06/20 00:57:26;;;;;;;7.38;4.68;;;26.30;68.90;;;;;;5124023;27;20059;-48
2021/06/20 00:59:54;;;;;;;8.10;5.03;;;26.30;69.10;;;;;;5135393;27;20103;-48
2021/06/20 01:02:22;;;;;;;5.57;4.50;;;26.30;69.30;;;;;;5122818;27;20047;-48
2021/06/20 01:04:50;;;;;;;7.93;4.50;;;26.20;69.40;;;;;;5122649;27;20108;-50
2021/06/20 01:07:20;;;;;;;6.80;4.30;;;26.20;69.70;;;;;;5088606;27;20040;-54
2021/06/20 01:09:49;;;;;;;6.85;4.50;;;26.30;70.00;;;;;;5122632;27;20070;-50
2021/06/20 01:12:19;;;;;;;5.93;4.20;;;26.20;70.10;;;;;;5101908;27;20050;-49
2021/06/20 01:14:48;;;;;;;5.35;4.38;;;26.20;70.20;;;;;;5105277;28;20106;-48
2021/06/20 01:17:17;;;;;;;6.80;4.65;;;26.20;70.40;;;;;;5118911;27;20056;-49
2021/06/20 01:19:45;;;;;;;4.93;3.70;;;26.10;70.60;;;;;;5121033;27;20051;-48
2021/06/20 01:22:26;;;;;;;5.50;3.92;;;26.10;70.60;;;;;;5121164;27;20044;-48
2021/06/20 01:25:01;;;;;;;7.05;4.15;;;26.10;70.80;;;;;;5076386;28;20055;-50
2021/06/20 01:27:33;;;;;;;5.55;3.80;;;26.10;71.10;;;;;;5120903;27;20476;-47
2021/06/20 01:30:04;;;;;;;6.32;3.75;;;26.10;71.40;;;;;;5118171;27;20512;-49
2021/06/20 01:32:32;;;;;;;7.18;4.15;;;26.10;71.60;;;;;;5121963;27;20043;-48
2021/06/20 01:35:00;;;;;;;7.53;3.95;;;26.10;71.90;;;;;;5116536;27;20054;-47
2021/06/20 01:37:27;;;;;;;6.10;4.63;;;26.10;72.20;;;;;;5102137;27;20048;-50
2021/06/20 01:39:57;;;;;;;6.18;4.45;;;26.10;72.30;;;;;;5100949;27;20043;-50
2021/06/20 01:42:25;;;;;;;5.65;4.00;;;26.10;72.60;;;;;;5105214;27;20043;-48
2021/06/20 01:44:57;;;;;;;7.30;4.32;;;26.10;72.90;;;;;;5134607;27;20047;-47
2021/06/20 01:47:26;;;;;;;6.97;4.50;;;26.00;73.00;;;;;;5101728;28;20048;-49
2021/06/20 01:49:57;;;;;;;6.45;4.72;;;26.00;73.10;;;;;;5117168;27;20111;-49
2021/06/20 01:52:26;;;;;;;5.30;3.83;;;26.00;73.40;;;;;;5101993;27;20048;-48
2021/06/20 01:54:55;;;;;;;5.72;4.43;;;26.00;73.70;;;;;;5117576;27;20043;-48
2021/06/20 01:57:32;;;;;;;6.80;4.78;;;26.00;73.80;;;;;;5101243;27;20040;-49
2021/06/20 02:00:04;;;;;;;11.65;4.78;;;25.90;73.90;;;;;;5135616;27;20489;-48
2021/06/20 02:02:39;;;;;;;5.75;4.47;;;25.90;73.80;;;;;;5121975;27;20051;-48
2021/06/20 02:05:08;;;;;;;11.52;4.82;;;26.00;73.80;;;;;;5117141;27;20485;-50
2021/06/20 02:07:37;;;;;;;6.15;4.22;;;25.90;73.50;;;;;;5104502;27;20101;-48
2021/06/20 02:10:13;;;;;;;7.03;4.40;;;25.90;73.40;;;;;;5117266;27;20047;-48
2021/06/20 02:12:40;;;;;;;7.60;4.88;;;25.90;73.40;;;;;;5126382;27;20058;-48
2021/06/20 02:15:10;;;;;;;6.95;4.05;;;25.90;73.40;;;;;;5113642;28;20054;-47
2021/06/20 02:17:38;;;;;;;7.05;4.15;;;25.90;73.50;;;;;;5086243;27;20105;-48
2021/06/20 02:20:11;;;;;;;7.07;4.90;;;25.90;73.50;;;;;;5116748;27;20043;-49
2021/06/20 02:22:40;;;;;;;7.35;4.43;;;25.90;73.40;;;;;;5126201;27;20043;-49
2021/06/20 02:25:09;;;;;;;7.32;4.55;;;25.90;73.30;;;;;;5113120;28;20493;-49
2021/06/20 02:27:38;;;;;;;7.05;4.50;;;25.90;73.10;;;;;;5102564;27;20658;-49
2021/06/20 02:30:07;;;;;;;8.68;4.93;;;25.90;73.00;;;;;;5133984;27;20099;-49
2021/06/20 02:32:35;;;;;;;8.40;4.72;;;25.90;72.80;;;;;;5122067;27;20060;-48
2021/06/20 02:35:05;;;;;;;7.13;4.93;;;25.80;72.60;;;;;;5116549;27;20158;-49
2021/06/20 02:37:33;;;;;;;6.80;5.13;;;25.80;72.60;;;;;;5121773;27;20051;-50
2021/06/20 02:40:01;;;;;;;8.07;4.68;;;25.80;72.50;;;;;;5133493;27;20557;-49
2021/06/20 02:42:28;;;;;;;7.13;4.40;;;25.90;72.50;;;;;;5101533;28;20048;-49
2021/06/20 02:44:56;;;;;;;6.30;5.25;;;25.80;72.40;;;;;;5133293;27;20051;-49
2021/06/20 02:47:24;;;;;;;6.03;4.40;;;25.80;72.20;;;;;;5120477;27;20047;-47
2021/06/20 02:49:51;;;;;;;6.57;4.13;;;25.80;72.10;;;;;;5134635;27;20054;-49
2021/06/20 02:52:19;;;;;;;8.07;4.47;;;25.80;71.90;;;;;;5120778;27;20043;-48
2021/06/20 02:54:49;;;;;;;5.72;3.95;;;25.80;71.80;;;;;;5092472;28;20048;-48
2021/06/20 02:57:23;;;;;;;4.57;3.33;;;25.80;71.50;;;;;;5101343;28;20085;-57
2021/06/20 02:59:52;;;;;;;4.78;3.25;;;25.80;71.30;;;;;;5093690;28;20051;-49
2021/06/20 03:02:21;;;;;;;5.95;4.15;;;25.80;71.20;;;;;;5080930;28;20399;-49
2021/06/20 03:04:51;;;;;;;5.07;3.83;;;25.80;71.10;;;;;;5058826;28;20097;-47
2021/06/20 03:07:18;;;;;;;4.88;3.83;;;25.80;70.80;;;;;;5094859;28;20127;-48
2021/06/20 03:09:46;;;;;;;5.88;3.60;;;25.80;70.80;;;;;;5092299;28;20044;-48
2021/06/20 03:12:15;;;;;;;5.97;3.45;;;25.80;70.60;;;;;;5111188;27;20062;-47
2021/06/20 03:14:44;;;;;;;7.47;3.63;;;25.90;70.60;;;;;;5132414;27;20059;-48
2021/06/20 03:17:14;;;;;;;7.00;4.25;;;25.90;70.60;;;;;;5121644;27;20047;-48
2021/06/20 03:19:44;;;;;;;5.53;3.65;;;25.90;70.60;;;;;;5132072;28;20043;-48
2021/06/20 03:22:12;;;;;;;6.43;3.45;;;25.90;70.50;;;;;;5121628;28;20100;-48
2021/06/20 03:24:43;;;;;;;8.13;4.25;;;25.90;70.40;;;;;;5098252;28;20047;-47
2021/06/20 03:27:11;;;;;;;7.28;4.10;;;25.90;70.30;;;;;;5121833;28;20054;-49
2021/06/20 03:29:39;;;;;;;5.55;3.65;;;25.90;70.40;;;;;;5131763;28;20057;-48
2021/06/20 03:32:07;;;;;;;8.63;4.10;;;25.90;70.30;;;;;;5101640;28;20068;-48
2021/06/20 03:34:35;;;;;;;8.30;4.15;;;26.00;70.30;;;;;;5114192;28;20058;-48
2021/06/20 03:37:04;;;;;;;5.13;3.80;;;26.00;70.20;;;;;;5102252;28;20044;-48
2021/06/20 03:39:34;;;;;;;6.25;3.70;;;26.00;70.20;;;;;;5130341;28;20505;-48
2021/06/20 03:42:02;;;;;;;7.45;4.22;;;26.00;70.20;;;;;;5102288;28;20135;-48
2021/06/20 03:44:29;;;;;;;5.45;4.28;;;26.00;70.20;;;;;;5089366;28;20051;-48
2021/06/20 03:46:58;;;;;;;5.72;4.18;;;26.10;70.20;;;;;;5117577;28;20052;-48
2021/06/20 03:49:26;;;;;;;7.35;4.25;;;26.10;70.00;;;;;;5095874;28;20447;-48
2021/06/20 03:51:54;;;;;;;5.90;3.75;;;26.10;69.90;;;;;;5123639;28;20054;-49
2021/06/20 03:54:24;;;;;;;5.00;3.67;;;26.10;70.30;;;;;;5129233;28;20078;-49
2021/06/20 03:56:55;;;;;;;5.65;3.90;;;26.10;69.60;;;;;;5103623;28;20087;-49
2021/06/20 03:59:25;;;;;;;6.55;4.28;;;26.20;69.50;;;;;;5116552;27;20629;-48
2021/06/20 04:01:54;;;;;;;6.18;4.38;;;26.20;69.40;;;;;;5128964;27;20051;-49
2021/06/20 04:04:21;;;;;;;6.30;4.63;;;26.30;69.20;;;;;;5115961;27;20134;-48
2021/06/20 04:06:49;;;;;;;7.18;4.50;;;26.30;69.10;;;;;;5128625;27;20108;-49
2021/06/20 04:09:18;;;;;;;6.63;3.95;;;26.40;69.00;;;;;;5132386;27;20557;-48
2021/06/20 04:11:47;;;;;;;6.13;4.15;;;26.50;68.90;;;;;;5111602;28;20071;-48
2021/06/20 04:14:15;;;;;;;4.47;3.35;;;26.60;68.80;;;;;;5115060;27;20051;-49
2021/06/20 04:16:43;;;;;;;6.95;4.28;;;26.60;68.70;;;;;;5129022;27;20064;-48
2021/06/20 04:19:11;;;;;;;6.38;3.83;;;26.70;68.70;;;;;;5114051;27;20035;-48
2021/06/20 04:21:39;;;;;;;5.85;3.47;;;26.80;68.50;;;;;;5129068;27;20489;-48
2021/06/20 04:24:07;;;;;;;7.32;3.33;;;26.90;68.50;;;;;;5130445;27;20401;-49
2021/06/20 04:26:35;;;;;;;5.30;3.65;;;27.00;68.40;;;;;;5112805;27;20050;-48
2021/06/20 04:29:03;;;;;;;5.80;4.38;;;27.00;68.40;;;;;;5130066;27;20047;-49
2021/06/20 04:31:31;;;;;;;5.47;3.88;;;27.10;68.40;;;;;;5130250;27;20051;-49
2021/06/20 04:33:59;;;;;;;7.95;3.80;;;27.20;68.30;;;;;;5129023;27;20059;-48
2021/06/20 04:36:26;;;;;;;6.10;4.20;;;27.30;68.20;;;;;;5113801;27;20058;-48
2021/06/20 04:38:54;;;;;;;4.97;3.67;;;27.40;68.10;;;;;;5128491;27;20501;-49
2021/06/20 04:41:23;;;;;;;8.70;4.43;;;27.60;67.80;;;;;;5131376;27;20047;-48
2021/06/20 04:46:34;;;;;;;6.15;4.35;;;27.80;67.40;;;;;;5132878;27;20138;-48
2021/06/20 04:49:08;;;;;;;6.10;3.83;;;28.00;66.90;;;;;;5130582;27;20397;-48
2021/06/20 04:51:40;;;;;;;5.60;3.53;;;28.10;66.60;;;;;;5112263;27;20436;-48
2021/06/20 04:54:10;;;;;;;6.07;4.10;;;28.20;66.40;;;;;;5113479;27;20539;-47
2021/06/20 04:56:39;;;;;;;7.45;4.10;;;28.30;66.20;;;;;;5128901;27;20044;-50
2021/06/20 04:59:08;;;;;;;4.40;3.47;;;28.50;65.80;;;;;;5113150;27;20082;-48
2021/06/20 05:01:38;;;;;;;5.50;3.67;;;28.60;65.60;;;;;;5111826;27;20047;-48
2021/06/20 05:04:07;;;;;;;4.43;3.55;;;28.70;65.20;;;;;;5112997;27;20050;-49
2021/06/20 05:06:35;;;;;;;4.57;3.42;;;28.80;64.80;;;;;;5112090;27;20070;-49
2021/06/20 05:09:04;;;;;;;6.35;3.70;;;28.90;64.40;;;;;;5095251;27;20138;-48
2021/06/20 05:11:32;;;;;;;5.82;3.35;;;28.90;64.30;;;;;;5112587;27;20047;-48
2021/06/20 05:14:00;;;;;;;6.22;4.00;;;29.00;64.20;;;;;;5128939;27;20047;-50
2021/06/20 05:16:28;;;;;;;5.75;4.38;;;29.10;64.10;;;;;;5113075;27;20039;-48
2021/06/20 05:18:55;;;;;;;5.80;4.88;;;29.20;64.10;;;;;;5111182;27;20051;-48
2021/06/20 05:21:23;;;;;;;7.50;4.82;;;29.30;64.20;;;;;;5113239;27;20051;-47
2021/06/20 05:23:51;;;;;;;5.85;4.25;;;29.30;64.00;;;;;;5127352;27;20464;-49
2021/06/20 05:26:18;;;;;;;7.72;4.60;;;29.40;64.00;;;;;;5132126;27;20100;-48
2021/06/20 05:28:47;;;;;;;6.43;4.35;;;29.50;63.90;;;;;;5109302;27;20039;-48
2021/06/20 05:31:14;;;;;;;7.43;3.75;;;29.60;63.50;;;;;;5131485;27;20077;-48
2021/06/20 05:33:42;;;;;;;6.20;4.00;;;29.60;63.40;;;;;;5117674;27;20054;-50
2021/06/20 05:36:10;;;;;;;10.43;4.40;;;29.70;63.40;;;;;;5131101;27;20049;-48
2021/06/20 05:38:37;;;;;;;10.25;3.92;;;29.80;63.10;;;;;;5125610;27;20047;-48
2021/06/20 05:41:06;;;;;;;4.93;3.45;;;29.90;62.90;;;;;;5131023;27;20138;-49
2021/06/20 05:43:33;;;;;;;5.38;3.58;;;30.10;62.70;;;;;;5125513;27;20082;-47
2021/06/20 05:46:01;;;;;;;7.93;4.57;;;30.10;62.30;;;;;;5132064;27;20482;-48
2021/06/20 05:48:29;;;;;;;6.32;4.05;;;30.20;62.20;;;;;;5125603;27;20542;-48
2021/06/20 05:50:57;;;;;;;7.25;4.55;;;30.20;61.70;;;;;;5130941;27;20044;-49
2021/06/20 05:53:25;;;;;;;6.03;4.10;;;30.30;61.30;;;;;;5125092;27;20070;-48
2021/06/20 05:55:52;;;;;;;7.90;3.95;;;30.30;61.20;;;;;;5131798;27;20040;-48
2021/06/20 05:58:20;;;;;;;4.97;3.75;;;30.40;61.10;;;;;;5125622;27;20134;-49
2021/06/20 06:00:48;;;;;;;6.47;4.45;;;30.50;61.00;;;;;;5131989;27;20515;-49
2021/06/20 06:03:15;;;;;;;5.47;4.47;;;30.60;60.70;;;;;;5126371;27;20053;-48
2021/06/20 06:05:43;;;;;;;7.70;4.25;;;30.70;60.50;;;;;;5131786;27;20382;-49
2021/06/20 06:08:11;;;;;;;8.10;4.30;;;30.80;60.50;;;;;;5114908;27;20394;-49
2021/06/20 06:10:39;;;;;;;5.22;3.83;;;31.00;60.70;;;;;;5097847;27;20504;-49
2021/06/20 06:13:06;;;;;;;5.20;4.00;;;31.00;61.10;;;;;;5124518;27;20047;-49
2021/06/20 06:15:34;;;;;;;6.35;4.22;;;31.10;60.30;;;;;;5131901;27;20528;-49
2021/06/20 06:18:02;;;;;;;6.13;4.15;;;31.20;60.40;;;;;;5123653;27;20108;-48
2021/06/20 06:20:30;;;;;;;7.43;5.10;;;31.30;60.50;;;;;;5131660;27;20047;-49
2021/06/20 06:22:58;;;;;;;8.77;5.07;;;31.40;60.50;;;;;;5105926;27;20096;-49
2021/06/20 06:25:25;;;;;;;6.93;4.32;;;31.50;60.40;;;;;;5132433;27;20449;-48
2021/06/20 06:27:54;;;;;;;8.55;4.95;;;31.60;60.30;;;;;;5105131;27;20039;-48
2021/06/20 06:30:22;;;;;;;6.65;4.28;;;31.70;60.20;;;;;;5115367;27;20043;-48
2021/06/20 06:32:51;;;;;;;9.05;4.32;;;31.70;60.10;;;;;;5122097;27;20051;-48
2021/06/20 06:35:19;;;;;;;4.82;3.90;;;31.80;60.30;;;;;;5115391;27;20055;-49
2021/06/20 06:37:49;;;;;;;7.32;4.25;;;31.90;60.10;;;;;;5124933;27;20051;-50
2021/06/20 06:40:17;;;;;;;6.78;4.00;;;31.90;60.30;;;;;;5112955;28;20054;-49
2021/06/20 06:42:45;;;;;;;5.72;3.13;;;32.00;60.30;;;;;;5123025;27;20508;-49
2021/06/20 06:45:13;;;;;;;6.93;4.40;;;32.10;60.30;;;;;;5116281;27;20046;-51
2021/06/20 06:47:41;;;;;;;6.15;3.40;;;32.20;60.40;;;;;;5124356;27;20112;-48
2021/06/20 06:50:09;;;;;;;16.38;4.97;;;32.20;60.20;;;;;;5112905;28;20062;-49
2021/06/20 06:52:37;;;;;;;6.35;3.40;;;32.10;60.30;;;;;;5102426;27;20043;-49
2021/06/20 06:55:09;;;;;;;5.13;3.78;;;32.10;60.70;;;;;;5134599;27;20134;-49
2021/06/20 06:57:37;;;;;;;8.25;3.50;;;32.10;60.60;;;;;;5120301;27;20401;-49
2021/06/20 07:00:09;;;;;;;5.78;3.75;;;32.20;60.70;;;;;;5116791;27;20051;-49
2021/06/20 07:02:37;;;;;;;5.63;3.90;;;32.30;61.70;;;;;;5121298;27;20112;-49
2021/06/20 07:05:05;;;;;;;6.07;4.20;;;32.40;61.10;;;;;;5132858;27;20386;-49
2021/06/20 07:07:33;;;;;;;7.47;4.00;;;32.30;61.10;;;;;;5120060;27;20042;-48
2021/06/20 07:10:02;;;;;;;4.25;3.58;;;32.30;61.00;;;;;;5132884;27;20043;-48
2021/06/20 07:12:31;;;;;;;4.97;3.60;;;32.40;61.10;;;;;;5120045;27;20447;-48
2021/06/20 07:15:04;;;;;;;6.28;3.55;;;32.30;61.30;;;;;;5115750;27;20153;-49
2021/06/20 07:17:33;;;;;;;4.72;4.03;;;32.40;61.60;;;;;;5119850;28;20044;-48
2021/06/20 07:20:04;;;;;;;6.63;4.00;;;32.50;62.20;;;;;;5115724;28;20043;-49
2021/06/20 07:22:31;;;;;;;5.10;3.20;;;32.50;63.70;;;;;;5100984;28;20063;-48
2021/06/20 07:24:59;;;;;;;6.00;3.80;;;32.60;64.90;;;;;;5132606;28;20043;-49
2021/06/20 07:27:28;;;;;;;6.88;3.85;;;32.50;62.70;;;;;;5119444;28;20055;-48
2021/06/20 07:29:56;;;;;;;5.97;3.90;;;32.60;63.30;;;;;;5132634;28;20054;-49
2021/06/20 07:32:23;;;;;;;8.02;4.18;;;32.60;61.70;;;;;;5120315;27;20048;-49
2021/06/20 07:34:53;;;;;;;4.93;3.72;;;32.70;61.30;;;;;;5137068;27;20127;-48
2021/06/20 07:37:21;;;;;;;6.97;3.80;;;32.70;61.40;;;;;;5123763;27;20050;-50
2021/06/20 07:39:48;;;;;;;5.07;3.88;;;32.80;61.30;;;;;;5095648;28;20044;-49
2021/06/20 07:42:16;;;;;;;6.40;4.05;;;32.80;61.20;;;;;;5119519;27;20773;-50
2021/06/20 07:44:44;;;;;;;5.88;4.18;;;32.90;61.30;;;;;;5136451;27;20047;-50
2021/06/20 07:47:11;;;;;;;6.22;3.78;;;33.00;61.30;;;;;;5125150;27;20060;-48
2021/06/20 07:49:39;;;;;;;6.57;3.65;;;32.90;61.10;;;;;;5136452;27;20051;-55
2021/06/20 07:52:07;;;;;;;5.90;3.50;;;32.80;61.10;;;;;;5125514;27;20134;-49
2021/06/20 07:54:35;;;;;;;7.93;4.75;;;32.80;61.00;;;;;;5134651;27;20043;-48
2021/06/20 07:57:03;;;;;;;5.05;3.90;;;33.00;61.20;;;;;;5126544;27;20051;-49
2021/06/20 07:59:31;;;;;;;9.82;4.00;;;33.00;61.00;;;;;;5133950;27;20079;-48
2021/06/20 08:01:58;;;;;;;4.97;3.95;;;33.10;60.80;;;;;;5126722;27;20406;-49
2021/06/20 08:04:26;;;;;;;6.35;4.20;;;33.10;60.70;;;;;;5116402;27;20055;-48
2021/06/20 08:06:54;;;;;;;7.65;4.03;;;33.10;61.30;;;;;;5128177;27;20051;-49
2021/06/20 08:09:21;;;;;;;11.40;4.55;;;33.20;61.40;;;;;;5132382;27;20520;-48
2021/06/20 08:11:49;;;;;;;7.18;4.88;;;33.20;61.40;;;;;;5127747;27;20497;-49
2021/06/20 08:14:19;;;;;;;5.05;3.60;;;33.20;61.10;;;;;;5133095;27;20481;-48
2021/06/20 08:16:47;;;;;;;7.18;3.95;;;33.20;61.00;;;;;;5107814;28;20044;-50
2021/06/20 08:19:15;;;;;;;5.43;4.07;;;33.30;60.90;;;;;;5127170;27;20100;-49
2021/06/20 08:21:43;;;;;;;5.72;4.28;;;33.30;60.80;;;;;;5128032;27;20123;-49
2021/06/20 08:24:11;;;;;;;5.57;4.53;;;33.40;61.20;;;;;;5131096;27;20046;-49
2021/06/20 08:26:40;;;;;;;5.00;3.47;;;33.40;61.00;;;;;;5111881;27;20047;-48
2021/06/20 08:29:08;;;;;;;7.68;4.75;;;33.50;60.80;;;;;;5113291;27;20084;-48
2021/06/20 08:31:36;;;;;;;7.22;4.53;;;33.50;60.80;;;;;;5128673;27;20097;-48
2021/06/20 08:34:07;;;;;;;6.45;4.68;;;33.40;60.80;;;;;;5129324;27;20047;-49
2021/06/20 08:36:35;;;;;;;5.95;4.13;;;33.40;60.80;;;;;;5129415;27;20051;-49
2021/06/20 08:39:06;;;;;;;5.78;4.18;;;33.30;60.90;;;;;;5129749;27;20508;-48
2021/06/20 08:41:38;;;;;;;5.47;3.97;;;33.30;60.70;;;;;;5112265;27;20068;-49
2021/06/20 08:44:20;;;;;;;5.97;4.20;;;33.50;60.80;;;;;;5130384;27;20050;-51
2021/06/20 08:46:48;;;;;;;5.90;3.67;;;33.50;60.80;;;;;;5106665;28;20048;-49
2021/06/20 08:49:16;;;;;;;11.75;4.07;;;33.40;61.00;;;;;;5110142;27;20050;-50
2021/06/20 08:51:49;;;;;;;6.50;3.70;;;33.50;60.60;;;;;;5127937;27;20044;-49
2021/06/20 08:54:18;;;;;;;7.45;3.80;;;33.50;60.70;;;;;;5132462;27;20135;-50
2021/06/20 08:56:50;;;;;;;7.93;3.95;;;33.60;60.30;;;;;;5107041;28;20079;-48
2021/06/20 08:59:20;;;;;;;6.32;4.05;;;33.50;60.40;;;;;;5127054;27;20130;-53
2021/06/20 09:01:48;;;;;;;6.45;4.90;;;33.50;60.80;;;;;;5106786;28;20044;-49
2021/06/20 09:04:35;;;;;;;6.57;4.35;;;33.50;61.00;;;;;;5109967;27;20508;-50
2021/06/20 09:07:05;;;;;;;6.57;3.72;;;33.50;61.10;;;;;;5124740;27;20052;-48
2021/06/20 09:09:35;;;;;;;6.45;4.13;;;33.50;60.90;;;;;;5116229;27;20137;-50
2021/06/20 09:12:09;;;;;;;5.75;4.03;;;33.40;61.00;;;;;;5124443;27;20059;-49
2021/06/20 09:14:42;;;;;;;5.32;3.80;;;33.40;61.20;;;;;;5132810;27;20069;-50
2021/06/20 09:17:11;;;;;;;6.18;4.60;;;33.50;61.10;;;;;;5124116;27;20044;-49
2021/06/20 09:19:38;;;;;;;8.10;4.93;;;33.40;60.90;;;;;;5132443;27;20134;-50
2021/06/20 09:22:10;;;;;;;7.97;4.63;;;33.20;61.20;;;;;;5122758;27;20108;-49
2021/06/20 09:24:40;;;;;;;7.28;4.07;;;33.30;61.60;;;;;;5115813;27;20096;-49
2021/06/20 09:27:08;;;;;;;6.70;4.43;;;33.30;61.60;;;;;;5123019;27;20442;-49
2021/06/20 09:29:36;;;;;;;7.20;4.15;;;33.40;61.50;;;;;;5132405;27;20043;-50
2021/06/20 09:32:06;;;;;;;6.28;4.35;;;33.50;61.20;;;;;;5124756;27;20435;-49
2021/06/20 09:34:51;;;;;;;5.32;4.15;;;33.50;61.40;;;;;;5131703;27;20055;-51
2021/06/20 09:37:21;;;;;;;8.90;4.80;;;33.50;61.30;;;;;;5121112;27;20100;-49
2021/06/20 09:39:48;;;;;;;7.20;4.32;;;33.50;61.00;;;;;;5092486;28;20122;-49
2021/06/20 09:42:17;;;;;;;7.63;5.10;;;33.30;61.00;;;;;;5115173;27;20056;-49
2021/06/20 09:44:48;;;;;;;5.70;4.35;;;33.40;61.30;;;;;;5133245;27;20043;-49
2021/06/20 09:47:26;;;;;;;6.32;3.67;;;33.50;61.40;;;;;;5100436;28;20131;-50
2021/06/20 09:49:54;;;;;;;5.00;3.70;;;33.50;61.10;;;;;;5134736;27;20557;-55
2021/06/20 09:52:32;;;;;;;8.32;4.70;;;33.60;61.00;;;;;;5120554;27;20043;-53
2021/06/20 09:55:02;;;;;;;5.40;4.53;;;33.60;60.90;;;;;;5133476;27;20100;-50
2021/06/20 09:57:42;;;;;;;5.32;4.28;;;33.70;60.60;;;;;;5084105;27;20048;-52
2021/06/20 10:00:12;;;;;;;6.15;4.80;;;33.70;60.10;;;;;;5116177;27;20103;-53
2021/06/20 10:02:43;;;;;;;6.68;4.65;;;33.60;60.40;;;;;;5125292;27;20374;-52
2021/06/20 10:05:12;;;;;;;5.75;4.22;;;33.60;60.40;;;;;;5077920;28;20527;-52
2021/06/20 10:07:40;;;;;;;6.03;4.28;;;33.60;60.20;;;;;;5121177;27;20042;-48
2021/06/20 10:10:10;;;;;;;5.80;3.92;;;33.60;60.40;;;;;;5115785;27;20050;-52
2021/06/20 10:12:38;;;;;;;6.30;4.35;;;33.60;60.00;;;;;;5102325;27;20485;-51
2021/06/20 10:15:13;;;;;;;6.18;3.83;;;33.60;60.00;;;;;;5134049;27;20051;-50
2021/06/20 10:17:45;;;;;;;;;;;33.60;59.80;;;;;;5109351;27;20059;-49
2021/06/20 10:20:15;;;;;;;9.00;4.45;;;33.70;59.80;;;;;;5132478;27;19972;-50
2021/06/20 10:22:45;;;;;;;9.02;4.63;;;33.80;60.30;;;;;;5121575;27;20487;-56
2021/06/20 10:25:39;;;;;;;5.72;4.78;;;33.80;60.20;;;;;;5134023;27;20232;-57
2021/06/20 10:28:11;;;;;;;4.90;3.97;;;33.80;60.30;;;;;;5123810;27;20062;-58
2021/06/20 10:30:40;;;;;;;7.50;4.00;;;33.70;60.00;;;;;;5131273;27;20154;-58
2021/06/20 10:33:13;;;;;;;5.05;4.15;;;33.70;60.10;;;;;;5124186;27;20496;-58
2021/06/20 10:35:43;;;;;;;8.30;4.47;;;33.80;59.80;;;;;;5130561;27;20054;-58
2021/06/20 10:38:44;;;;;;;6.05;3.92;;;33.90;59.60;;;;;;5118659;27;20405;-58
2021/06/20 10:41:22;;;;;;;6.28;4.18;;;33.90;59.70;;;;;;5107740;27;20043;-59
2021/06/20 10:43:57;;;;;;;6.88;4.43;;;34.00;60.00;;;;;;5118829;27;20066;-58
2021/06/20 10:46:25;;;;;;;7.05;4.95;;;34.00;59.70;;;;;;5129617;27;20102;-59
2021/06/20 10:48:53;;;;;;;8.52;4.47;;;34.00;59.60;;;;;;5127021;27;20073;-59
2021/06/20 10:51:23;;;;;;;6.43;4.75;;;34.00;60.10;;;;;;5128606;27;20139;-58
2021/06/20 10:53:51;;;;;;;6.90;5.32;;;34.00;60.30;;;;;;5126399;27;20453;-59
2021/06/20 10:56:27;;;;;;;6.70;5.10;;;33.90;60.40;;;;;;5130663;27;20118;-59
2021/06/20 10:58:56;;;;;;;5.80;4.63;;;33.90;60.90;;;;;;5127067;27;20051;-59
2021/06/20 11:01:28;;;;;;;7.82;5.00;;;33.80;61.30;;;;;;5129478;27;20043;-58
2021/06/20 11:03:55;;;;;;;6.95;4.75;;;33.70;60.50;;;;;;5127021;27;20047;-58
2021/06/20 11:06:24;;;;;;;8.05;5.30;;;33.60;60.50;;;;;;5127767;27;20124;-59
2021/06/20 11:09:07;;;;;;;6.80;5.25;;;33.70;60.30;;;;;;5126962;27;20043;-59
2021/06/20 11:11:35;;;;;;;8.00;5.03;;;33.80;60.30;;;;;;5127893;27;20046;-59
2021/06/20 11:14:08;;;;;;;7.13;4.57;;;33.80;60.10;;;;;;5128296;27;20130;-59
2021/06/20 11:16:39;;;;;;;6.93;5.38;;;33.70;60.00;;;;;;5127606;27;20492;-59
2021/06/20 11:19:22;;;;;;;10.10;5.22;;;33.80;60.10;;;;;;5128641;27;20043;-59
2021/06/20 11:21:57;;;;;;;8.75;4.63;;;33.80;60.10;;;;;;5125535;27;20553;-59
2021/06/20 11:24:33;;;;;;;8.13;5.38;;;33.80;60.40;;;;;;5131328;28;20047;-59
2021/06/20 11:27:03;;;;;;;10.40;6.30;;;33.90;60.10;;;;;;5123918;27;20355;-59
2021/06/20 11:29:59;;;;;;;8.48;4.95;;;33.80;60.20;;;;;;5130358;28;20464;-59
2021/06/20 11:32:34;;;;;;;8.63;6.25;;;33.90;60.20;;;;;;5121004;28;20051;-59
2021/06/20 11:35:06;;;;;;;7.32;5.35;;;33.90;60.20;;;;;;5133886;27;20039;-59
2021/06/20 11:37:36;;;;;;;9.52;4.25;;;33.70;59.90;;;;;;5120767;28;20143;-59
2021/06/20 11:40:15;;;;;;;8.40;4.75;;;33.70;60.30;;;;;;5134082;27;20043;-59
2021/06/20 11:42:51;;;;;;;5.53;4.53;;;33.60;60.50;;;;;;5121522;28;20039;-59
2021/06/20 11:45:28;;;;;;;6.30;4.95;;;33.70;60.40;;;;;;5132653;27;20043;-58
2021/06/20 11:48:02;;;;;;;7.03;4.82;;;33.60;60.60;;;;;;5120527;28;20054;-59
2021/06/20 11:50:32;;;;;;;5.38;3.65;;;33.60;60.70;;;;;;5132253;27;20043;-59
2021/06/20 11:53:03;;;;;;;7.18;3.90;;;33.50;60.70;;;;;;5123699;28;20051;-59
2021/06/20 11:55:44;;;;;;;5.70;3.67;;;33.40;61.30;;;;;;5131914;27;20071;-59
2021/06/20 11:58:16;;;;;;;5.97;3.83;;;33.40;61.30;;;;;;5117738;28;20104;-59
2021/06/20 12:00:46;;;;;;;6.60;4.43;;;33.50;61.50;;;;;;5114293;28;20126;-59
2021/06/20 12:03:19;;;;;;;7.47;3.90;;;33.40;61.40;;;;;;5118271;28;20497;-59
2021/06/20 12:06:02;;;;;;;7.18;3.65;;;33.30;61.80;;;;;;5114216;28;20062;-59
2021/06/20 12:08:33;;;;;;;4.38;3.67;;;33.30;62.70;;;;;;5123972;27;20488;-59
2021/06/20 12:11:01;;;;;;;4.43;3.58;;;33.20;62.70;;;;;;5129722;27;20051;-59
2021/06/20 12:13:42;;;;;;;8.88;4.68;;;33.10;63.10;;;;;;5124217;27;20485;-59
2021/06/20 12:16:09;;;;;;;6.30;4.10;;;33.10;63.10;;;;;;5130105;27;20142;-59
2021/06/20 12:18:37;;;;;;;9.55;3.97;;;33.10;63.10;;;;;;5125486;27;20116;-59
2021/06/20 12:21:06;;;;;;;7.95;5.70;;;33.10;63.50;;;;;;5133492;27;20047;-59
2021/06/20 12:23:35;;;;;;;5.90;4.32;;;33.10;63.50;;;;;;5127716;27;20069;-59
2021/06/20 12:26:03;;;;;;;7.18;5.07;;;33.10;63.50;;;;;;5133662;27;20465;-59
2021/06/20 12:28:31;;;;;;;7.80;5.20;;;33.20;63.60;;;;;;5128272;27;20504;-59
2021/06/20 12:30:59;;;;;;;6.05;4.82;;;33.20;63.60;;;;;;5133457;27;20036;-60
2021/06/20 12:33:28;;;;;;;5.68;4.60;;;33.20;63.70;;;;;;5127301;27;20062;-59
2021/06/20 12:36:00;;;;;;;7.57;5.53;;;33.10;63.60;;;;;;5131838;27;20122;-59
2021/06/20 12:38:30;;;;;;;7.38;5.68;;;33.10;63.80;;;;;;5127969;27;20462;-59
2021/06/20 12:40:59;;;;;;;9.65;5.00;;;33.10;64.20;;;;;;5132011;27;20039;-59
2021/06/20 12:43:28;;;;;;;7.25;5.18;;;33.10;64.20;;;;;;5127703;27;20051;-59
2021/06/20 12:46:03;;;;;;;5.25;4.60;;;33.10;64.50;;;;;;5133015;27;20044;-59
2021/06/20 12:48:35;;;;;;;5.30;4.32;;;33.10;64.50;;;;;;5127568;27;20063;-59
2021/06/20 12:51:05;;;;;;;6.30;4.65;;;33.10;64.60;;;;;;5133206;27;20096;-59
2021/06/20 12:53:36;;;;;;;8.55;4.85;;;33.10;65.00;;;;;;5127378;27;20075;-59
2021/06/20 12:56:06;;;;;;;5.80;4.10;;;33.10;65.00;;;;;;5133084;27;20043;-59
2021/06/20 12:58:34;;;;;;;9.18;5.40;;;33.10;65.00;;;;;;5127369;27;20084;-59
2021/06/20 13:01:07;;;;;;;6.93;4.65;;;33.10;65.20;;;;;;5132992;27;20043;-59